METAR AND TAF INFORMATION
METAR FOR HEGN
ADDS - METARS form results

(1107 UTC 14 July 2020)
Data provider http://aviationweather.gov/metar/data/
 
Forecast for: HEGN (HURGUADA , EG)
Text: TAF HEGN 140500Z 1406/1512 35008G20KT CAVOK
Forecast period: 0600 UTC 14 July 2020 to 1200 UTC 15 July 2020
Forecast type: FROM: standard forecast or significant change
Winds: from the N (350 degrees) at 9 MPH (8 knots; 4.1 m/s)
gusting to 23 MPH (20 knots; 10.3 m/s)
Visibility: 6 or more miles 10+ km)
Ceiling: unknown
Clouds: missing
Weather: NSW  (no significant weather)

 AIRPORT MAP

 RUNWAY INFORMATION
Runway 16 Runway length 13124 ft Runway width 148 ft
Runway elevation 50 ft Runway displaced threshold 985 ft Runway heading 165
Runway 34 Runway length 13124 ft Runway width 148 ft
Runway elevation 35 ft Runway displaced threshold 0 ft Runway heading 345

 AIRPORT FREQUENCIES
Type APP Name RADAR Frequency 123.4 MHZ
Type GND Name GND Frequency 121.9 MHZ
Type RDO Name RDO Frequency 585.9 MHZ
Type TWR Name TWR Frequency 119.6 MHZ

 AIRPORT NEAR NAVIGATION AIDS
Type VOR-DME Name Hurghada Frequency 116500 KHZ